sensor_id;sensor_type;location;lat;lon;timestamp;P1;durP1;ratioP1;P2;durP2;ratioP2
26337;SDS011;14050;50.950;4.460;2023-05-07T00:01:50;16.27;;;5.15;;
26337;SDS011;14050;50.950;4.460;2023-05-07T00:06:50;11.03;;;4.60;;
26337;SDS011;14050;50.950;4.460;2023-05-07T00:11:51;14.25;;;5.20;;
26337;SDS011;14050;50.950;4.460;2023-05-07T00:16:51;11.90;;;4.97;;
26337;SDS011;14050;50.950;4.460;2023-05-07T00:21:52;17.50;;;5.90;;
26337;SDS011;14050;50.950;4.460;2023-05-07T00:26:54;12.98;;;5.47;;
26337;SDS011;14050;50.950;4.460;2023-05-07T00:31:54;13.43;;;5.85;;
26337;SDS011;14050;50.950;4.460;2023-05-07T00:36:55;11.93;;;4.80;;
26337;SDS011;14050;50.950;4.460;2023-05-07T00:41:55;12.77;;;5.63;;
26337;SDS011;14050;50.950;4.460;2023-05-07T00:46:58;13.80;;;5.32;;
26337;SDS011;14050;50.950;4.460;2023-05-07T00:52:01;14.95;;;6.10;;
26337;SDS011;14050;50.950;4.460;2023-05-07T00:57:02;10.60;;;5.90;;
26337;SDS011;14050;50.950;4.460;2023-05-07T01:02:03;10.07;;;5.40;;
26337;SDS011;14050;50.950;4.460;2023-05-07T01:07:04;12.70;;;5.40;;
26337;SDS011;14050;50.950;4.460;2023-05-07T01:12:05;10.95;;;5.38;;
26337;SDS011;14050;50.950;4.460;2023-05-07T01:17:06;16.23;;;5.95;;
26337;SDS011;14050;50.950;4.460;2023-05-07T01:22:09;10.80;;;5.55;;
26337;SDS011;14050;50.950;4.460;2023-05-07T01:27:10;10.63;;;5.93;;
26337;SDS011;14050;50.950;4.460;2023-05-07T01:32:11;13.02;;;6.47;;
26337;SDS011;14050;50.950;4.460;2023-05-07T01:37:12;10.77;;;5.72;;
26337;SDS011;14050;50.950;4.460;2023-05-07T01:42:13;10.93;;;5.82;;
26337;SDS011;14050;50.950;4.460;2023-05-07T01:47:13;10.68;;;6.35;;
26337;SDS011;14050;50.950;4.460;2023-05-07T01:52:14;13.48;;;6.93;;
26337;SDS011;14050;50.950;4.460;2023-05-07T01:57:14;18.38;;;6.47;;
26337;SDS011;14050;50.950;4.460;2023-05-07T02:02:15;15.40;;;6.90;;
26337;SDS011;14050;50.950;4.460;2023-05-07T02:07:16;10.85;;;5.82;;
26337;SDS011;14050;50.950;4.460;2023-05-07T02:12:16;11.88;;;6.65;;
26337;SDS011;14050;50.950;4.460;2023-05-07T02:17:18;11.25;;;6.53;;
26337;SDS011;14050;50.950;4.460;2023-05-07T02:22:18;10.70;;;6.40;;
26337;SDS011;14050;50.950;4.460;2023-05-07T02:27:18;9.30;;;6.05;;
26337;SDS011;14050;50.950;4.460;2023-05-07T02:32:19;9.00;;;5.78;;
26337;SDS011;14050;50.950;4.460;2023-05-07T02:37:20;11.48;;;5.93;;
26337;SDS011;14050;50.950;4.460;2023-05-07T02:42:21;11.75;;;6.32;;
26337;SDS011;14050;50.950;4.460;2023-05-07T02:47:21;10.45;;;5.78;;
26337;SDS011;14050;50.950;4.460;2023-05-07T02:52:22;15.80;;;6.90;;
26337;SDS011;14050;50.950;4.460;2023-05-07T02:57:23;15.68;;;7.47;;
26337;SDS011;14050;50.950;4.460;2023-05-07T03:02:23;18.17;;;8.27;;
26337;SDS011;14050;50.950;4.460;2023-05-07T03:07:25;12.13;;;6.50;;
26337;SDS011;14050;50.950;4.460;2023-05-07T03:12:25;9.63;;;6.35;;
26337;SDS011;14050;50.950;4.460;2023-05-07T03:17:25;10.87;;;6.77;;
26337;SDS011;14050;50.950;4.460;2023-05-07T03:22:26;9.83;;;6.67;;
26337;SDS011;14050;50.950;4.460;2023-05-07T03:27:26;13.47;;;6.27;;
26337;SDS011;14050;50.950;4.460;2023-05-07T03:32:27;8.57;;;5.93;;
26337;SDS011;14050;50.950;4.460;2023-05-07T03:37:27;14.60;;;7.50;;
26337;SDS011;14050;50.950;4.460;2023-05-07T03:42:28;17.23;;;9.93;;
26337;SDS011;14050;50.950;4.460;2023-05-07T03:47:28;13.85;;;7.68;;
26337;SDS011;14050;50.950;4.460;2023-05-07T03:52:29;16.77;;;7.57;;
26337;SDS011;14050;50.950;4.460;2023-05-07T03:57:30;21.45;;;8.75;;
26337;SDS011;14050;50.950;4.460;2023-05-07T04:02:30;13.13;;;7.65;;
26337;SDS011;14050;50.950;4.460;2023-05-07T04:07:30;13.77;;;8.13;;
26337;SDS011;14050;50.950;4.460;2023-05-07T04:12:31;15.27;;;8.07;;
26337;SDS011;14050;50.950;4.460;2023-05-07T04:17:31;13.07;;;8.37;;
26337;SDS011;14050;50.950;4.460;2023-05-07T04:22:31;14.23;;;8.75;;
26337;SDS011;14050;50.950;4.460;2023-05-07T04:27:32;15.77;;;8.37;;
26337;SDS011;14050;50.950;4.460;2023-05-07T04:32:32;14.90;;;9.48;;
26337;SDS011;14050;50.950;4.460;2023-05-07T04:37:33;16.50;;;10.07;;
26337;SDS011;14050;50.950;4.460;2023-05-07T04:42:33;15.37;;;9.70;;
26337;SDS011;14050;50.950;4.460;2023-05-07T04:47:33;12.33;;;8.70;;
26337;SDS011;14050;50.950;4.460;2023-05-07T04:52:34;14.35;;;9.48;;
26337;SDS011;14050;50.950;4.460;2023-05-07T04:57:34;21.30;;;10.80;;
26337;SDS011;14050;50.950;4.460;2023-05-07T05:02:35;16.67;;;9.70;;
26337;SDS011;14050;50.950;4.460;2023-05-07T05:07:35;16.45;;;9.48;;
26337;SDS011;14050;50.950;4.460;2023-05-07T05:12:36;14.73;;;9.65;;
26337;SDS011;14050;50.950;4.460;2023-05-07T05:17:36;19.75;;;10.10;;
26337;SDS011;14050;50.950;4.460;2023-05-07T05:22:37;16.70;;;10.27;;
26337;SDS011;14050;50.950;4.460;2023-05-07T05:27:37;13.82;;;10.20;;
26337;SDS011;14050;50.950;4.460;2023-05-07T05:32:38;12.60;;;9.90;;
26337;SDS011;14050;50.950;4.460;2023-05-07T05:37:38;17.08;;;11.07;;
26337;SDS011;14050;50.950;4.460;2023-05-07T05:42:39;21.85;;;10.77;;
26337;SDS011;14050;50.950;4.460;2023-05-07T05:47:40;18.75;;;12.30;;
26337;SDS011;14050;50.950;4.460;2023-05-07T05:52:41;17.92;;;12.38;;
26337;SDS011;14050;50.950;4.460;2023-05-07T05:57:42;19.30;;;11.20;;
26337;SDS011;14050;50.950;4.460;2023-05-07T06:02:42;14.82;;;11.07;;
26337;SDS011;14050;50.950;4.460;2023-05-07T06:07:43;17.80;;;10.93;;
26337;SDS011;14050;50.950;4.460;2023-05-07T06:12:43;19.20;;;11.48;;
26337;SDS011;14050;50.950;4.460;2023-05-07T06:17:44;16.05;;;12.48;;
26337;SDS011;14050;50.950;4.460;2023-05-07T06:22:44;18.97;;;12.13;;
26337;SDS011;14050;50.950;4.460;2023-05-07T06:27:44;19.73;;;12.57;;
26337;SDS011;14050;50.950;4.460;2023-05-07T06:32:45;24.13;;;12.55;;
26337;SDS011;14050;50.950;4.460;2023-05-07T06:37:46;21.20;;;12.40;;
26337;SDS011;14050;50.950;4.460;2023-05-07T06:42:46;15.30;;;11.68;;
26337;SDS011;14050;50.950;4.460;2023-05-07T06:47:46;16.07;;;12.03;;
26337;SDS011;14050;50.950;4.460;2023-05-07T06:52:46;20.63;;;11.43;;
26337;SDS011;14050;50.950;4.460;2023-05-07T06:57:47;18.98;;;10.82;;
26337;SDS011;14050;50.950;4.460;2023-05-07T07:02:47;19.53;;;10.03;;
26337;SDS011;14050;50.950;4.460;2023-05-07T07:07:48;13.52;;;6.88;;
26337;SDS011;14050;50.950;4.460;2023-05-07T07:12:52;18.42;;;6.93;;
26337;SDS011;14050;50.950;4.460;2023-05-07T07:17:53;14.83;;;6.10;;
26337;SDS011;14050;50.950;4.460;2023-05-07T07:22:53;17.30;;;6.00;;
26337;SDS011;14050;50.950;4.460;2023-05-07T07:27:53;18.17;;;5.65;;
26337;SDS011;14050;50.950;4.460;2023-05-07T07:32:54;15.53;;;5.00;;
26337;SDS011;14050;50.950;4.460;2023-05-07T07:37:55;16.98;;;6.00;;
26337;SDS011;14050;50.950;4.460;2023-05-07T07:42:56;13.73;;;5.60;;
26337;SDS011;14050;50.950;4.460;2023-05-07T07:47:56;14.07;;;5.30;;
26337;SDS011;14050;50.950;4.460;2023-05-07T07:52:56;20.57;;;6.20;;
26337;SDS011;14050;50.950;4.460;2023-05-07T07:57:57;16.95;;;6.28;;
26337;SDS011;14050;50.950;4.460;2023-05-07T08:02:57;17.33;;;5.85;;
26337;SDS011;14050;50.950;4.460;2023-05-07T08:07:57;16.85;;;5.75;;
26337;SDS011;14050;50.950;4.460;2023-05-07T08:12:58;19.70;;;6.38;;
26337;SDS011;14050;50.950;4.460;2023-05-07T08:17:59;16.85;;;5.65;;
26337;SDS011;14050;50.950;4.460;2023-05-07T08:23:00;12.40;;;5.63;;
26337;SDS011;14050;50.950;4.460;2023-05-07T08:28:00;12.32;;;5.78;;
26337;SDS011;14050;50.950;4.460;2023-05-07T08:33:01;15.23;;;5.97;;
26337;SDS011;14050;50.950;4.460;2023-05-07T08:38:01;10.07;;;5.53;;
26337;SDS011;14050;50.950;4.460;2023-05-07T08:43:01;12.25;;;6.03;;
26337;SDS011;14050;50.950;4.460;2023-05-07T08:48:02;20.83;;;6.80;;
26337;SDS011;14050;50.950;4.460;2023-05-07T08:53:03;12.27;;;6.20;;
26337;SDS011;14050;50.950;4.460;2023-05-07T08:58:04;15.48;;;5.65;;
26337;SDS011;14050;50.950;4.460;2023-05-07T09:03:04;14.32;;;6.68;;
26337;SDS011;14050;50.950;4.460;2023-05-07T09:08:06;18.75;;;7.28;;
26337;SDS011;14050;50.950;4.460;2023-05-07T09:13:06;18.38;;;6.57;;
26337;SDS011;14050;50.950;4.460;2023-05-07T09:18:06;16.33;;;7.25;;
26337;SDS011;14050;50.950;4.460;2023-05-07T09:23:07;12.68;;;6.78;;
26337;SDS011;14050;50.950;4.460;2023-05-07T09:28:07;14.88;;;6.68;;
26337;SDS011;14050;50.950;4.460;2023-05-07T09:33:10;20.77;;;8.45;;
26337;SDS011;14050;50.950;4.460;2023-05-07T09:38:11;21.13;;;11.75;;
26337;SDS011;14050;50.950;4.460;2023-05-07T09:43:13;22.10;;;13.15;;
26337;SDS011;14050;50.950;4.460;2023-05-07T09:48:13;18.33;;;7.10;;
26337;SDS011;14050;50.950;4.460;2023-05-07T09:53:17;17.88;;;8.68;;
26337;SDS011;14050;50.950;4.460;2023-05-07T09:58:18;14.93;;;8.48;;
26337;SDS011;14050;50.950;4.460;2023-05-07T10:03:18;14.15;;;7.75;;
26337;SDS011;14050;50.950;4.460;2023-05-07T10:08:19;11.45;;;4.50;;
26337;SDS011;14050;50.950;4.460;2023-05-07T10:13:20;23.15;;;5.35;;
26337;SDS011;14050;50.950;4.460;2023-05-07T10:18:21;8.40;;;4.10;;
26337;SDS011;14050;50.950;4.460;2023-05-07T10:23:29;8.35;;;3.08;;
26337;SDS011;14050;50.950;4.460;2023-05-07T10:28:32;15.02;;;4.03;;
26337;SDS011;14050;50.950;4.460;2023-05-07T10:33:34;12.55;;;3.42;;
26337;SDS011;14050;50.950;4.460;2023-05-07T10:38:34;13.80;;;4.47;;
26337;SDS011;14050;50.950;4.460;2023-05-07T10:43:41;9.48;;;4.40;;
26337;SDS011;14050;50.950;4.460;2023-05-07T11:04:30;10.55;;;4.35;;
26337;SDS011;14050;50.950;4.460;2023-05-07T11:14:53;10.30;;;4.90;;
26337;SDS011;14050;50.950;4.460;2023-05-07T11:19:54;13.45;;;4.13;;
26337;SDS011;14050;50.950;4.460;2023-05-07T11:24:55;14.07;;;4.53;;
26337;SDS011;14050;50.950;4.460;2023-05-07T11:29:56;9.20;;;4.05;;
26337;SDS011;14050;50.950;4.460;2023-05-07T11:34:59;14.02;;;4.90;;
26337;SDS011;14050;50.950;4.460;2023-05-07T11:40:07;13.00;;;4.55;;
26337;SDS011;14050;50.950;4.460;2023-05-07T11:45:08;16.43;;;4.97;;
26337;SDS011;14050;50.950;4.460;2023-05-07T11:50:09;14.93;;;4.82;;
26337;SDS011;14050;50.950;4.460;2023-05-07T11:55:10;13.52;;;4.85;;
26337;SDS011;14050;50.950;4.460;2023-05-07T12:00:11;9.23;;;3.37;;
26337;SDS011;14050;50.950;4.460;2023-05-07T12:05:11;11.57;;;3.97;;
26337;SDS011;14050;50.950;4.460;2023-05-07T12:10:13;10.40;;;4.00;;
26337;SDS011;14050;50.950;4.460;2023-05-07T12:15:17;10.90;;;3.42;;
26337;SDS011;14050;50.950;4.460;2023-05-07T12:20:17;11.20;;;4.07;;
26337;SDS011;14050;50.950;4.460;2023-05-07T12:25:18;8.10;;;2.97;;
26337;SDS011;14050;50.950;4.460;2023-05-07T12:30:19;13.93;;;3.33;;
26337;SDS011;14050;50.950;4.460;2023-05-07T12:35:26;7.70;;;3.17;;
26337;SDS011;14050;50.950;4.460;2023-05-07T12:40:48;6.38;;;2.50;;
26337;SDS011;14050;50.950;4.460;2023-05-07T12:45:48;6.43;;;2.30;;
26337;SDS011;14050;50.950;4.460;2023-05-07T12:50:50;6.05;;;2.28;;
26337;SDS011;14050;50.950;4.460;2023-05-07T12:55:53;5.68;;;2.50;;
26337;SDS011;14050;50.950;4.460;2023-05-07T13:00:55;8.43;;;2.17;;
26337;SDS011;14050;50.950;4.460;2023-05-07T13:06:08;5.25;;;2.50;;
26337;SDS011;14050;50.950;4.460;2023-05-07T13:11:10;6.20;;;3.20;;
26337;SDS011;14050;50.950;4.460;2023-05-07T13:16:11;7.82;;;3.95;;
26337;SDS011;14050;50.950;4.460;2023-05-07T13:21:12;19.77;;;5.07;;
26337;SDS011;14050;50.950;4.460;2023-05-07T13:26:13;9.90;;;4.57;;
26337;SDS011;14050;50.950;4.460;2023-05-07T13:31:15;13.38;;;3.92;;
26337;SDS011;14050;50.950;4.460;2023-05-07T13:36:17;9.52;;;4.40;;
26337;SDS011;14050;50.950;4.460;2023-05-07T13:41:18;8.90;;;4.22;;
26337;SDS011;14050;50.950;4.460;2023-05-07T13:46:19;4.80;;;2.67;;
26337;SDS011;14050;50.950;4.460;2023-05-07T13:51:20;2.70;;;1.77;;
26337;SDS011;14050;50.950;4.460;2023-05-07T13:56:22;6.95;;;2.38;;
26337;SDS011;14050;50.950;4.460;2023-05-07T14:01:23;4.30;;;2.50;;
26337;SDS011;14050;50.950;4.460;2023-05-07T14:06:24;7.68;;;2.75;;
26337;SDS011;14050;50.950;4.460;2023-05-07T14:11:24;11.50;;;3.25;;
26337;SDS011;14050;50.950;4.460;2023-05-07T14:16:25;4.90;;;2.58;;
26337;SDS011;14050;50.950;4.460;2023-05-07T14:21:26;6.60;;;3.35;;
26337;SDS011;14050;50.950;4.460;2023-05-07T14:26:28;8.13;;;3.85;;
26337;SDS011;14050;50.950;4.460;2023-05-07T14:31:30;7.93;;;3.75;;
26337;SDS011;14050;50.950;4.460;2023-05-07T14:36:31;7.00;;;4.80;;
26337;SDS011;14050;50.950;4.460;2023-05-07T14:41:32;6.10;;;4.20;;
26337;SDS011;14050;50.950;4.460;2023-05-07T14:46:34;6.97;;;3.95;;
26337;SDS011;14050;50.950;4.460;2023-05-07T14:51:35;6.60;;;4.57;;
26337;SDS011;14050;50.950;4.460;2023-05-07T14:56:36;6.85;;;4.20;;
26337;SDS011;14050;50.950;4.460;2023-05-07T15:01:38;9.13;;;5.20;;
26337;SDS011;14050;50.950;4.460;2023-05-07T15:06:41;9.30;;;5.38;;
26337;SDS011;14050;50.950;4.460;2023-05-07T15:11:41;6.85;;;4.70;;
26337;SDS011;14050;50.950;4.460;2023-05-07T15:16:42;5.15;;;4.30;;
26337;SDS011;14050;50.950;4.460;2023-05-07T15:21:43;10.15;;;6.43;;
26337;SDS011;14050;50.950;4.460;2023-05-07T15:26:44;7.25;;;6.03;;
26337;SDS011;14050;50.950;4.460;2023-05-07T15:31:45;8.68;;;5.72;;
26337;SDS011;14050;50.950;4.460;2023-05-07T15:36:46;10.07;;;6.00;;
26337;SDS011;14050;50.950;4.460;2023-05-07T15:41:48;7.88;;;5.45;;
26337;SDS011;14050;50.950;4.460;2023-05-07T15:46:49;6.60;;;5.43;;
26337;SDS011;14050;50.950;4.460;2023-05-07T15:51:51;6.20;;;4.95;;
26337;SDS011;14050;50.950;4.460;2023-05-07T15:56:52;7.00;;;4.65;;
26337;SDS011;14050;50.950;4.460;2023-05-07T16:01:53;7.57;;;5.15;;
26337;SDS011;14050;50.950;4.460;2023-05-07T16:06:54;8.15;;;5.55;;
26337;SDS011;14050;50.950;4.460;2023-05-07T16:11:55;9.27;;;5.95;;
26337;SDS011;14050;50.950;4.460;2023-05-07T16:16:56;7.73;;;5.80;;
26337;SDS011;14050;50.950;4.460;2023-05-07T16:21:56;7.80;;;5.57;;
26337;SDS011;14050;50.950;4.460;2023-05-07T16:26:57;6.93;;;5.37;;
26337;SDS011;14050;50.950;4.460;2023-05-07T16:31:57;8.53;;;6.00;;
26337;SDS011;14050;50.950;4.460;2023-05-07T16:36:58;7.72;;;6.57;;
26337;SDS011;14050;50.950;4.460;2023-05-07T16:41:58;10.80;;;7.13;;
26337;SDS011;14050;50.950;4.460;2023-05-07T16:46:58;14.47;;;8.40;;
26337;SDS011;14050;50.950;4.460;2023-05-07T16:51:59;11.77;;;9.60;;
26337;SDS011;14050;50.950;4.460;2023-05-07T16:56:59;11.87;;;9.60;;
26337;SDS011;14050;50.950;4.460;2023-05-07T17:01:59;11.67;;;9.33;;
26337;SDS011;14050;50.950;4.460;2023-05-07T17:07:00;12.53;;;8.50;;
26337;SDS011;14050;50.950;4.460;2023-05-07T17:12:00;11.77;;;7.95;;
26337;SDS011;14050;50.950;4.460;2023-05-07T17:17:01;9.55;;;7.75;;
26337;SDS011;14050;50.950;4.460;2023-05-07T17:22:02;10.95;;;7.00;;
26337;SDS011;14050;50.950;4.460;2023-05-07T17:27:03;11.02;;;7.28;;
26337;SDS011;14050;50.950;4.460;2023-05-07T17:32:03;10.83;;;6.97;;
26337;SDS011;14050;50.950;4.460;2023-05-07T17:37:03;9.43;;;6.80;;
26337;SDS011;14050;50.950;4.460;2023-05-07T17:42:04;9.10;;;6.75;;
26337;SDS011;14050;50.950;4.460;2023-05-07T17:47:04;10.25;;;7.47;;
26337;SDS011;14050;50.950;4.460;2023-05-07T17:52:06;10.60;;;7.53;;
26337;SDS011;14050;50.950;4.460;2023-05-07T17:57:06;14.98;;;10.38;;
26337;SDS011;14050;50.950;4.460;2023-05-07T18:02:07;10.75;;;6.82;;
26337;SDS011;14050;50.950;4.460;2023-05-07T18:07:07;7.53;;;6.17;;
26337;SDS011;14050;50.950;4.460;2023-05-07T18:12:07;8.70;;;7.00;;
26337;SDS011;14050;50.950;4.460;2023-05-07T18:17:08;8.60;;;7.63;;
26337;SDS011;14050;50.950;4.460;2023-05-07T18:22:08;10.40;;;7.77;;
26337;SDS011;14050;50.950;4.460;2023-05-07T18:27:08;14.13;;;7.90;;
26337;SDS011;14050;50.950;4.460;2023-05-07T18:32:09;12.47;;;7.63;;
26337;SDS011;14050;50.950;4.460;2023-05-07T18:37:09;22.48;;;12.63;;
26337;SDS011;14050;50.950;4.460;2023-05-07T18:42:09;18.60;;;11.30;;
26337;SDS011;14050;50.950;4.460;2023-05-07T18:47:10;11.80;;;8.73;;
26337;SDS011;14050;50.950;4.460;2023-05-07T18:52:10;10.80;;;7.82;;
26337;SDS011;14050;50.950;4.460;2023-05-07T18:57:11;10.67;;;7.90;;
26337;SDS011;14050;50.950;4.460;2023-05-07T19:02:11;9.67;;;7.87;;
26337;SDS011;14050;50.950;4.460;2023-05-07T19:07:13;10.13;;;8.25;;
26337;SDS011;14050;50.950;4.460;2023-05-07T19:12:13;14.63;;;11.05;;
26337;SDS011;14050;50.950;4.460;2023-05-07T19:17:14;11.18;;;7.68;;
26337;SDS011;14050;50.950;4.460;2023-05-07T19:22:15;11.07;;;7.63;;
26337;SDS011;14050;50.950;4.460;2023-05-07T19:27:15;10.83;;;6.57;;
26337;SDS011;14050;50.950;4.460;2023-05-07T19:32:16;8.43;;;5.60;;
26337;SDS011;14050;50.950;4.460;2023-05-07T19:37:16;7.80;;;6.03;;
26337;SDS011;14050;50.950;4.460;2023-05-07T19:42:17;12.90;;;5.47;;
26337;SDS011;14050;50.950;4.460;2023-05-07T19:47:17;13.53;;;9.13;;
26337;SDS011;14050;50.950;4.460;2023-05-07T19:52:17;16.80;;;10.93;;
26337;SDS011;14050;50.950;4.460;2023-05-07T19:57:18;16.10;;;10.27;;
26337;SDS011;14050;50.950;4.460;2023-05-07T20:02:18;14.20;;;9.95;;
26337;SDS011;14050;50.950;4.460;2023-05-07T20:07:18;14.80;;;9.50;;
26337;SDS011;14050;50.950;4.460;2023-05-07T20:12:18;14.13;;;9.52;;
26337;SDS011;14050;50.950;4.460;2023-05-07T20:17:20;10.48;;;8.63;;
26337;SDS011;14050;50.950;4.460;2023-05-07T20:22:21;12.13;;;8.75;;
26337;SDS011;14050;50.950;4.460;2023-05-07T20:27:22;13.70;;;8.10;;
26337;SDS011;14050;50.950;4.460;2023-05-07T20:32:24;15.98;;;10.10;;
26337;SDS011;14050;50.950;4.460;2023-05-07T20:37:24;15.50;;;10.83;;
26337;SDS011;14050;50.950;4.460;2023-05-07T20:42:25;15.25;;;11.20;;
26337;SDS011;14050;50.950;4.460;2023-05-07T20:47:26;15.02;;;10.93;;
26337;SDS011;14050;50.950;4.460;2023-05-07T20:52:26;17.90;;;11.15;;
26337;SDS011;14050;50.950;4.460;2023-05-07T20:57:27;15.80;;;10.85;;
26337;SDS011;14050;50.950;4.460;2023-05-07T21:02:27;14.40;;;10.57;;
26337;SDS011;14050;50.950;4.460;2023-05-07T21:07:28;18.50;;;11.93;;
26337;SDS011;14050;50.950;4.460;2023-05-07T21:12:28;16.92;;;12.50;;
26337;SDS011;14050;50.950;4.460;2023-05-07T21:17:29;15.67;;;11.93;;
26337;SDS011;14050;50.950;4.460;2023-05-07T21:22:30;17.27;;;12.27;;
26337;SDS011;14050;50.950;4.460;2023-05-07T21:27:31;20.67;;;15.57;;
26337;SDS011;14050;50.950;4.460;2023-05-07T21:32:31;20.38;;;14.88;;
26337;SDS011;14050;50.950;4.460;2023-05-07T21:37:31;20.60;;;14.37;;
26337;SDS011;14050;50.950;4.460;2023-05-07T21:42:31;21.63;;;16.00;;
26337;SDS011;14050;50.950;4.460;2023-05-07T21:47:32;22.47;;;17.90;;
26337;SDS011;14050;50.950;4.460;2023-05-07T21:52:32;22.17;;;17.13;;
26337;SDS011;14050;50.950;4.460;2023-05-07T21:57:33;23.73;;;18.13;;
26337;SDS011;14050;50.950;4.460;2023-05-07T22:02:35;29.25;;;21.88;;
26337;SDS011;14050;50.950;4.460;2023-05-07T22:07:35;26.98;;;20.85;;
26337;SDS011;14050;50.950;4.460;2023-05-07T22:12:35;27.77;;;20.03;;
26337;SDS011;14050;50.950;4.460;2023-05-07T22:17:36;29.75;;;19.73;;
26337;SDS011;14050;50.950;4.460;2023-05-07T22:22:49;31.35;;;20.63;;
26337;SDS011;14050;50.950;4.460;2023-05-07T22:27:50;32.88;;;22.25;;
26337;SDS011;14050;50.950;4.460;2023-05-07T22:32:50;32.70;;;23.20;;
26337;SDS011;14050;50.950;4.460;2023-05-07T22:37:50;34.70;;;25.07;;
26337;SDS011;14050;50.950;4.460;2023-05-07T22:42:51;40.33;;;26.03;;
26337;SDS011;14050;50.950;4.460;2023-05-07T22:47:51;31.23;;;22.57;;
26337;SDS011;14050;50.950;4.460;2023-05-07T22:52:51;24.27;;;20.30;;
26337;SDS011;14050;50.950;4.460;2023-05-07T22:57:52;30.03;;;21.63;;
26337;SDS011;14050;50.950;4.460;2023-05-07T23:02:52;28.98;;;20.05;;
26337;SDS011;14050;50.950;4.460;2023-05-07T23:07:52;28.60;;;23.27;;
26337;SDS011;14050;50.950;4.460;2023-05-07T23:12:53;42.90;;;29.40;;
26337;SDS011;14050;50.950;4.460;2023-05-07T23:17:53;40.47;;;29.20;;
26337;SDS011;14050;50.950;4.460;2023-05-07T23:22:53;38.27;;;26.97;;
26337;SDS011;14050;50.950;4.460;2023-05-07T23:27:54;40.95;;;29.75;;
26337;SDS011;14050;50.950;4.460;2023-05-07T23:32:54;50.20;;;31.02;;
26337;SDS011;14050;50.950;4.460;2023-05-07T23:37:55;49.80;;;35.30;;
26337;SDS011;14050;50.950;4.460;2023-05-07T23:42:55;56.80;;;36.20;;
26337;SDS011;14050;50.950;4.460;2023-05-07T23:47:55;46.87;;;32.37;;
26337;SDS011;14050;50.950;4.460;2023-05-07T23:52:56;46.93;;;34.20;;
26337;SDS011;14050;50.950;4.460;2023-05-07T23:57:56;52.13;;;34.92;;
